WetterOnline ( https://www.wetteronline.de )

Wetter aktuell Essen

Aktuelles Wetter: Essen (161m)

6-stündlich | Neueste Meldungen
Ortszeit Temperatur Wetter
Di, 16.04. 14:00 10.3° C wolkig
Di, 16.04. 8:00 5.0° C bedeckt
Di, 16.04. 2:00 5.5° C wolkig
Mo, 15.04. 20:00 5.7° C wolkig
Mo, 15.04. 14:00 11.8° C bewölkt
Mo, 15.04. 8:00 7.3° C wolkig
Mo, 15.04. 2:00 9.1° C leichter Regen
So, 14.04. 20:00 13.0° C wolkig
Ortszeit Temperatur Wetter
Di, 16.04. 19:30 8.1° C leichter Regen
Di, 16.04. 19:20 8.1° C leichter Regen
Di, 16.04. 19:10 8.3° C leichter Regen
Di, 16.04. 19:00 8.5° C bewölkt
Di, 16.04. 18:50 8.5° C bewölkt
Di, 16.04. 18:40 8.4° C bewölkt
Di, 16.04. 18:30 8.5° C bedeckt
Di, 16.04. 18:00 8.3° C bedeckt
Di, 16.04. 17:30 8.0° C bedeckt
Di, 16.04. 17:00 8.0° C leichter Regen
Di, 16.04. 16:30 9.7° C leichter Regen
Ortszeit Relative Feuchte Sichtweite
Di, 16.04. 14:00 74% 55 km
Di, 16.04. 8:00 89% 40 km
Di, 16.04. 2:00 81% 50 km
Mo, 15.04. 20:00 83% 65 km
Mo, 15.04. 14:00 59% 45 km
Mo, 15.04. 8:00 89% 23 km
Mo, 15.04. 2:00 82% 14 km
So, 14.04. 20:00 51% 50 km
Ortszeit Relative Feuchte Sichtweite
Di, 16.04. 19:30 89% 23 km
Di, 16.04. 19:20 89% -
Di, 16.04. 19:10 90% -
Di, 16.04. 19:00 88% 45 km
Di, 16.04. 18:50 88% -
Di, 16.04. 18:40 87% -
Di, 16.04. 18:30 87% 45 km
Di, 16.04. 18:00 85% 55 km
Di, 16.04. 17:30 82% 60 km
Di, 16.04. 17:00 88% 18 km
Di, 16.04. 16:30 74% 65 km
Ortszeit Niederschlagsmenge Niederschlagsart
Di, 16.04. 14:00 6 l/m2 in 6 Std. Regen
Di, 16.04. 8:00 1 l/m2 in 12 Std. Regen
Di, 16.04. 2:00 0.1 l/m2 in 6 Std. Regen
Mo, 15.04. 20:00 4 l/m2 in 12 Std. Regen
Mo, 15.04. 14:00 0.0 l/m2 in 6 Std. -
Mo, 15.04. 8:00 1 l/m2 in 12 Std. Regen
Mo, 15.04. 2:00 0.6 l/m2 in 6 Std. Regen
So, 14.04. 20:00 0.0 l/m2 in 12 Std. -
Ortszeit Niederschlagsmenge Niederschlagsart
Di, 16.04. 19:30 0.3 l/m2 in 30 Min -
Di, 16.04. 19:20 keine Meldung -
Di, 16.04. 19:10 keine Meldung -
Di, 16.04. 19:00 0.1 l/m2 in 1 Std. Regen
Di, 16.04. 18:50 keine Meldung -
Di, 16.04. 18:40 keine Meldung -
Di, 16.04. 18:30 0.1 l/m2 in 30 Min Schneeregen
Di, 16.04. 18:00 2.4 l/m2 in 1 Std. Regen
Di, 16.04. 17:30 2.4 l/m2 in 30 Min Schneeregen
Di, 16.04. 17:00 2.0 l/m2 in 1 Std. Regen
Di, 16.04. 16:30 <0.05 l/m2 in 30 Min -
Ortszeit Stärke Spitze Richtung
km/h Bft. km/h Grad Sektor
Di, 16.04. 14:00 20 4 56 290° W
Di, 16.04. 8:00 24 4 54 220° SW
Di, 16.04. 2:00 19 3 56 230° SW
Mo, 15.04. 20:00 22 4 68 230° SW
Mo, 15.04. 14:00 25 4 47 210° SW
Mo, 15.04. 8:00 14 3 25 220° SW
Mo, 15.04. 2:00 6 1 19 330° NW
So, 14.04. 20:00 9 2 31 340° N
Ortszeit Stärke Spitze Richtung
km/h Bft. km/h Grad Sektor
Di, 16.04. 19:30 6 1 11 310° NW
Di, 16.04. 19:20 6 1 - 310° NW
Di, 16.04. 19:10 4 1 - 290° W
Di, 16.04. 19:00 4 1 11 330° NW
Di, 16.04. 18:50 4 1 - 330° NW
Di, 16.04. 18:40 4 1 - 320° NW
Di, 16.04. 18:30 6 1 11 320° NW
Di, 16.04. 18:00 4 1 25 290° W
Di, 16.04. 17:30 6 1 26 340° N
Di, 16.04. 17:00 11 2 32 310° NW
Di, 16.04. 16:30 13 3 31 340° N
Ortszeit Untergrenze Bedeckung Gattung
total tief tief mittel hoch
Di, 16.04. 14:00 630 m 7/8 4/8 - - -
Di, 16.04. 8:00 360 m 8/8 8/8 - - -
Di, 16.04. 2:00 1290 m 7/8 4/8 - - -
Mo, 15.04. 20:00 360 m 7/8 1/8 - - -
Mo, 15.04. 14:00 1050 m 8/8 4/8 - - -
Mo, 15.04. 8:00 5700 m 5/8 4/8 - - -
Mo, 15.04. 2:00 690 m 7/8 7/8 - - -
So, 14.04. 20:00 2700 m 7/8 4/8 - - -
Ortszeit Bedeckungsgrad in Achtel und Wolkenuntergrenze
Di, 16.04. 19:30 2(840m) 7(1170m) 8(1470m)
Di, 16.04. 19:20 2(840m) 7(1170m) 8(1470m)
Di, 16.04. 19:10 7
Di, 16.04. 19:00 2(960m) 7(1500m) 7(3900m)
Di, 16.04. 18:50 2(960m) 7(1500m) 7(3900m)
Di, 16.04. 18:40 7
Di, 16.04. 18:30 1(450m) 6(960m) 8(1320m)
Di, 16.04. 18:00 3(780m) 7(1470m) 8(1500m)
Di, 16.04. 17:30 1(300m) 6(1500m) 8(1800m)
Di, 16.04. 17:00 1(150m) 7(750m) 8(990m)
Di, 16.04. 16:30 3(630m) 6(2400m) 7(4500m)
Ortszeit Luftdruck NN (hPa) Tendenz (hPa in 3 Std.)
Di, 16.04. 14:00 1001 + 2,7
Di, 16.04. 8:00 1001 - 1,5
Di, 16.04. 2:00 1004 - 0,6
Mo, 15.04. 20:00 1003 + 0,6
Mo, 15.04. 14:00 1005 - 4,7
Mo, 15.04. 8:00 1012 - 1,9
Mo, 15.04. 2:00 1017 - 1,2
So, 14.04. 20:00 1019 - 1,6
Ortszeit Luftdruck NN (hPa) Tendenz (hPa in 3 Std.)
Di, 16.04. 19:30 1006 + 2,1
Di, 16.04. 19:20 1006 keine Meldung
Di, 16.04. 19:10 1006 keine Meldung
Di, 16.04. 19:00 1006 + 2,1
Di, 16.04. 18:50 1006 keine Meldung
Di, 16.04. 18:40 1006 keine Meldung
Di, 16.04. 18:30 1006 + 2,2
Di, 16.04. 18:00 1005 + 2,7
Di, 16.04. 17:30 1005 + 2,7
Di, 16.04. 17:00 1004 + 2,8
Di, 16.04. 16:30 1004 + 2,7
Ortszeit Schneehöhe (cm)
Di, 16.04. 14:00 0
Di, 16.04. 8:00 0
Di, 16.04. 2:00 0
Mo, 15.04. 20:00 0
Mo, 15.04. 14:00 0
Mo, 15.04. 8:00 0
Mo, 15.04. 2:00 0
So, 14.04. 20:00 0
Ortszeit Schneehöhe (cm)
Di, 16.04. 19:30 0
Di, 16.04. 19:20 0
Di, 16.04. 19:10 -
Di, 16.04. 19:00 0
Di, 16.04. 18:50 0
Di, 16.04. 18:40 -
Di, 16.04. 18:30 0
Di, 16.04. 18:00 0
Di, 16.04. 17:30 0
Di, 16.04. 17:00 0
Di, 16.04. 16:30 0
Link zu dieser Seite / Seite empfehlen

Das Wetter in ...